Jacksonville, Missouri
Current Conditions -  °F | °C
As of 6:55 PM on Wednesday 22 Oct 2014 (Local Time) from KIRK Reporting Station
Clear Clear  
Wind Chill: 53°   Ceiling: Unl
Heat Index: 53°   Visibility: 10mi
Dew Point: 43°   Wind: 6mph
Humidity: 69%   Direction: 130°SE
Pressure: 30.18"   Gusts: NA
Location:  39.59°N, 92.47°W
Report Text: KIRK 222355Z AUTO 13005KT 10SM CLR 12/06 A3018 RMK AO2 SLP228 T01170061 10178 20111 53002
Loading
Personal Weather Stations






























Interactive Weather Map
Tropical Storm Tracking
New forecast layout! Learn more

10-Day Weather Forecast

Advertisements
Track Severe Weather on mobile